createdAt,value
2022-10-05T00:02:15.677Z,12.79
2022-10-05T00:07:20.427Z,12.78
2022-10-05T00:12:25.593Z,12.76
2022-10-05T00:17:29.980Z,12.72
2022-10-05T00:22:33.792Z,12.71
2022-10-05T00:27:38.943Z,12.67
2022-10-05T00:32:41.988Z,12.66
2022-10-05T00:37:45.201Z,12.64
2022-10-05T00:42:53.793Z,12.66
2022-10-05T00:48:05.751Z,12.61
2022-10-05T00:53:13.883Z,12.60
2022-10-05T00:58:24.022Z,12.60
2022-10-05T01:03:31.521Z,12.57
2022-10-05T01:08:42.153Z,12.56
2022-10-05T01:13:52.408Z,12.42
2022-10-05T01:19:01.206Z,12.40
2022-10-05T01:24:30.090Z,12.36
2022-10-05T01:29:38.148Z,12.41
2022-10-05T01:34:44.140Z,12.42
2022-10-05T01:39:50.863Z,12.49
2022-10-05T01:45:02.685Z,12.41
2022-10-05T01:50:09.489Z,12.33
2022-10-05T01:55:18.945Z,12.29
2022-10-05T02:00:22.953Z,12.30
2022-10-05T02:05:27.985Z,12.36
2022-10-05T02:10:33.056Z,12.38
2022-10-05T02:15:41.754Z,12.35
2022-10-05T02:20:45.583Z,12.25
2022-10-05T02:25:50.898Z,12.07
2022-10-05T02:30:58.235Z,11.92
2022-10-05T02:36:03.086Z,11.85
2022-10-05T02:41:11.585Z,11.81
2022-10-05T02:46:23.045Z,11.95
2022-10-05T02:51:28.605Z,12.06
2022-10-05T02:56:36.327Z,12.08
2022-10-05T03:01:47.224Z,12.11
2022-10-05T03:06:57.759Z,12.12
2022-10-05T03:12:09.729Z,12.14
2022-10-05T03:17:16.340Z,12.12
2022-10-05T03:22:27.050Z,12.13
2022-10-05T03:27:37.000Z,12.18
2022-10-05T03:32:49.112Z,12.13
2022-10-05T03:37:55.098Z,12.13
2022-10-05T03:43:09.460Z,12.11
2022-10-05T03:48:17.070Z,12.09
2022-10-05T03:53:21.908Z,12.08
2022-10-05T03:58:27.601Z,12.03
2022-10-05T04:03:36.704Z,12.00
2022-10-05T04:08:48.007Z,11.99
2022-10-05T04:13:59.155Z,12.02
2022-10-05T04:19:07.196Z,11.99
2022-10-05T04:24:15.538Z,11.98
2022-10-05T04:29:30.048Z,11.91
2022-10-05T04:34:54.635Z,11.83
2022-10-05T04:40:22.703Z,11.85
2022-10-05T04:45:33.255Z,11.86
2022-10-05T04:50:48.534Z,11.84
2022-10-05T04:55:57.230Z,11.87
2022-10-05T05:01:09.472Z,11.87
2022-10-05T05:06:22.216Z,11.87
2022-10-05T05:11:30.448Z,11.90
2022-10-05T05:16:37.493Z,11.89
2022-10-05T05:21:50.851Z,11.84
2022-10-05T05:27:21.982Z,11.87
2022-10-05T05:32:36.605Z,11.91
2022-10-05T05:37:46.711Z,11.95
2022-10-05T05:42:55.184Z,11.95
2022-10-05T05:48:00.048Z,11.96
2022-10-05T05:53:10.847Z,11.97
2022-10-05T05:58:20.775Z,11.92
2022-10-05T06:03:26.165Z,11.96
2022-10-05T06:08:36.237Z,11.99
2022-10-05T06:13:47.987Z,12.08
2022-10-05T06:18:53.785Z,12.15
2022-10-05T06:24:01.584Z,12.24
2022-10-05T06:29:06.852Z,12.39
2022-10-05T06:34:20.414Z,12.62
2022-10-05T06:39:47.877Z,12.80
2022-10-05T06:44:57.111Z,12.94
2022-10-05T06:50:16.356Z,13.01
2022-10-05T06:55:40.243Z,13.09
2022-10-05T07:00:48.758Z,13.17
2022-10-05T07:06:00.366Z,13.21
2022-10-05T07:11:14.094Z,13.26
2022-10-05T07:16:24.031Z,13.36
2022-10-05T07:21:34.482Z,13.50
2022-10-05T07:26:44.132Z,13.60
2022-10-05T07:31:50.986Z,13.73
2022-10-05T07:37:14.613Z,13.77
2022-10-05T07:42:25.891Z,13.90
2022-10-05T07:47:34.755Z,14.03
2022-10-05T07:52:40.143Z,14.13
2022-10-05T07:57:52.467Z,14.34
2022-10-05T08:02:59.231Z,14.53
2022-10-05T08:08:05.795Z,14.67
2022-10-05T08:13:13.439Z,14.77
2022-10-05T08:18:21.135Z,14.88
2022-10-05T08:23:25.624Z,14.97
2022-10-05T08:28:35.199Z,15.04
2022-10-05T08:33:45.131Z,15.07
2022-10-05T08:38:48.422Z,15.17
2022-10-05T08:44:11.539Z,15.25
2022-10-05T08:49:35.332Z,15.42
2022-10-05T08:55:10.443Z,15.51
2022-10-05T09:00:18.460Z,15.72
2022-10-05T09:05:34.535Z,15.85
2022-10-05T09:11:04.998Z,15.84
2022-10-05T09:16:39.688Z,15.80
2022-10-05T09:21:44.471Z,15.77
2022-10-05T09:26:59.811Z,15.76
2022-10-05T09:32:19.904Z,15.76
2022-10-05T09:37:46.353Z,15.79
2022-10-05T09:43:02.265Z,15.92
2022-10-05T09:48:38.673Z,16.10
2022-10-05T09:54:19.461Z,16.19
2022-10-05T10:00:00.817Z,16.33
2022-10-05T10:05:20.118Z,16.50
2022-10-05T10:10:38.866Z,16.59
2022-10-05T10:16:04.752Z,16.77
2022-10-05T10:21:26.241Z,17.05
2022-10-05T10:26:54.709Z,17.39
2022-10-05T10:32:10.137Z,17.62
2022-10-05T10:37:34.645Z,17.80
2022-10-05T10:42:41.076Z,17.99
2022-10-05T10:48:00.211Z,18.14
2022-10-05T10:53:10.496Z,18.50
2022-10-05T10:58:39.772Z,18.91
2022-10-05T11:04:08.659Z,19.29
2022-10-05T11:09:32.925Z,19.91
2022-10-05T11:14:55.298Z,21.58
2022-10-05T11:20:09.336Z,24.98
2022-10-05T11:25:25.909Z,26.27
2022-10-05T11:30:50.553Z,26.95
2022-10-05T11:36:04.652Z,25.27
2022-10-05T11:41:34.203Z,23.42
2022-10-05T11:46:42.641Z,24.52
2022-10-05T11:52:01.993Z,22.94
2022-10-05T11:57:09.099Z,21.92
2022-10-05T12:02:37.909Z,21.24
2022-10-05T12:07:50.563Z,22.16
2022-10-05T12:13:08.527Z,23.33
2022-10-05T12:18:14.259Z,24.75
2022-10-05T12:23:21.923Z,27.42
2022-10-05T12:28:32.347Z,27.90
2022-10-05T12:33:37.338Z,26.95
2022-10-05T12:38:44.360Z,25.66
2022-10-05T12:43:59.015Z,25.98
2022-10-05T12:49:20.731Z,26.93
2022-10-05T12:54:25.899Z,26.77
2022-10-05T12:59:36.965Z,26.69
2022-10-05T13:04:43.346Z,25.46
2022-10-05T13:09:49.954Z,24.46
2022-10-05T13:14:59.752Z,23.57
2022-10-05T13:20:08.947Z,23.91
2022-10-05T13:25:28.557Z,23.99
2022-10-05T13:30:32.604Z,23.45
2022-10-05T13:35:42.607Z,23.36
2022-10-05T13:40:49.839Z,23.07
2022-10-05T13:45:57.022Z,22.84
2022-10-05T13:51:04.510Z,22.59
2022-10-05T13:56:13.943Z,23.01
2022-10-05T14:01:22.326Z,22.11
2022-10-05T14:06:30.202Z,21.38
2022-10-05T14:11:35.097Z,21.04
2022-10-05T14:16:46.642Z,21.05
2022-10-05T14:21:54.231Z,20.92
2022-10-05T14:26:58.243Z,20.84
2022-10-05T14:32:04.524Z,20.85
2022-10-05T14:37:19.145Z,20.81
2022-10-05T14:42:23.972Z,20.82
2022-10-05T14:47:30.542Z,20.88
2022-10-05T14:52:34.687Z,21.01
2022-10-05T14:57:43.448Z,21.33
2022-10-05T15:03:05.683Z,21.96
2022-10-05T15:08:20.230Z,23.28
2022-10-05T15:13:25.910Z,26.13
2022-10-05T15:18:35.892Z,29.77
2022-10-05T15:23:42.753Z,32.14
2022-10-05T15:28:49.534Z,33.23
2022-10-05T15:33:57.360Z,32.22
2022-10-05T15:39:06.131Z,28.07
2022-10-05T15:44:16.778Z,26.72
2022-10-05T15:49:27.674Z,23.48
2022-10-05T15:54:59.705Z,22.10
2022-10-05T16:00:05.465Z,20.71
2022-10-05T16:05:41.794Z,20.08
2022-10-05T16:10:45.144Z,19.75
2022-10-05T16:15:51.263Z,19.31
2022-10-05T16:20:59.854Z,19.17
2022-10-05T16:26:13.967Z,19.05
2022-10-05T16:31:20.317Z,18.83
2022-10-05T16:36:43.061Z,18.65
2022-10-05T16:41:50.994Z,18.47
2022-10-05T16:46:58.520Z,18.35
2022-10-05T16:52:04.968Z,18.18
2022-10-05T16:57:12.635Z,18.07
2022-10-05T17:02:24.793Z,18.03
2022-10-05T17:07:45.447Z,17.97
2022-10-05T17:12:56.146Z,17.90
2022-10-05T17:18:13.083Z,17.82
2022-10-05T17:23:33.447Z,17.73
2022-10-05T17:28:40.915Z,17.66
2022-10-05T17:34:11.593Z,17.63
2022-10-05T17:39:17.454Z,17.58
2022-10-05T17:44:26.191Z,17.51
2022-10-05T17:50:15.547Z,17.48
2022-10-05T17:55:38.272Z,17.45
2022-10-05T18:00:43.568Z,17.42
2022-10-05T18:05:46.359Z,17.41
2022-10-05T18:11:23.837Z,17.39
2022-10-05T18:16:58.443Z,17.37
2022-10-05T18:22:04.395Z,17.35
2022-10-05T18:27:42.956Z,17.30
2022-10-05T18:33:11.558Z,17.28
2022-10-05T18:38:32.394Z,17.22
2022-10-05T18:43:40.853Z,17.16
2022-10-05T18:48:50.861Z,17.19
2022-10-05T18:54:04.850Z,17.23
2022-10-05T18:59:20.646Z,17.21
2022-10-05T19:04:31.463Z,17.15
2022-10-05T19:09:47.129Z,17.10
2022-10-05T19:14:55.682Z,17.04
2022-10-05T19:20:18.436Z,16.97
2022-10-05T19:25:32.410Z,16.93
2022-10-05T19:30:46.634Z,16.92
2022-10-05T19:35:58.561Z,16.88
2022-10-05T19:41:07.124Z,16.90
2022-10-05T19:46:19.099Z,16.90
2022-10-05T19:51:32.097Z,16.91
2022-10-05T19:56:35.749Z,16.91
2022-10-05T20:01:40.330Z,16.92
2022-10-05T20:06:44.402Z,16.95
2022-10-05T20:11:50.795Z,16.95
2022-10-05T20:17:33.862Z,16.90
2022-10-05T20:22:46.150Z,16.92
2022-10-05T20:27:50.910Z,16.86
2022-10-05T20:32:57.516Z,16.84
2022-10-05T20:38:01.567Z,16.85
2022-10-05T20:43:04.234Z,16.82
2022-10-05T20:48:06.913Z,16.83
2022-10-05T20:53:12.113Z,16.77
2022-10-05T20:58:14.870Z,16.74
2022-10-05T21:03:19.247Z,16.69
2022-10-05T21:08:23.210Z,16.55
2022-10-05T21:13:26.641Z,16.52
2022-10-05T21:18:29.793Z,16.57
2022-10-05T21:23:34.257Z,16.58
2022-10-05T21:28:37.002Z,16.61
2022-10-05T21:33:39.763Z,16.63
2022-10-05T21:38:43.759Z,16.59
2022-10-05T21:43:46.383Z,16.53
2022-10-05T21:48:49.531Z,16.48
2022-10-05T21:53:56.464Z,16.44
2022-10-05T21:58:59.538Z,16.42
2022-10-05T22:04:02.358Z,16.39
2022-10-05T22:09:06.417Z,16.35
2022-10-05T22:14:09.172Z,16.32
2022-10-05T22:19:14.910Z,16.33
2022-10-05T22:24:18.916Z,16.32
2022-10-05T22:29:22.057Z,16.31
2022-10-05T22:34:24.667Z,16.33
2022-10-05T22:39:28.606Z,16.31
2022-10-05T22:44:31.267Z,16.30
2022-10-05T22:49:33.900Z,16.27
2022-10-05T22:54:37.849Z,16.25
2022-10-05T22:59:40.465Z,16.23
2022-10-05T23:04:43.126Z,16.19
2022-10-05T23:09:47.292Z,16.13
2022-10-05T23:14:50.276Z,16.09
2022-10-05T23:19:52.935Z,16.04
2022-10-05T23:24:56.928Z,16.03
2022-10-05T23:29:59.538Z,15.98
2022-10-05T23:35:02.153Z,15.91
2022-10-05T23:40:08.535Z,15.89
2022-10-05T23:45:12.570Z,15.84
2022-10-05T23:50:15.186Z,15.88
2022-10-05T23:55:19.205Z,15.88
